Time;durP1;ratioP1;P1;durP2;ratioP2;P2;SDS_P1;SDS_P2;PMS_P1;PMS_P2;Temp;Humidity;BMP_temperature;BMP_pressure;BME280_temperature;BME280_humidity;BME280_pressure;Samples;Min_cycle;Max_cycle;Signal;HPM_P1;HPM_P2
2023/01/08 00:00:57;;;;;;;;;11.50;11.50;;;;;14.07;45.58;98931.66;4991380;28;45449;-79
2023/01/08 00:03:23;;;;;;;;;9.75;9.00;;;;;13.86;45.74;98915.16;4993873;28;45627;-78
2023/01/08 00:05:49;;;;;;;;;5.25;4.75;;;;;13.71;44.55;98931.06;4994229;28;45570;-77
2023/01/08 00:08:15;;;;;;;;;10.50;9.50;;;;;13.61;46.16;98925.41;4994584;28;45622;-78
2023/01/08 00:10:40;;;;;;;;;14.00;11.25;;;;;13.47;46.67;98938.56;4995043;28;45532;-78
2023/01/08 00:13:06;;;;;;;;;10.00;9.50;;;;;13.22;47.05;98921.38;4993668;28;45573;-79
2023/01/08 00:15:33;;;;;;;;;11.00;11.00;;;;;12.98;47.57;98924.44;4994670;28;45248;-78
2023/01/08 00:17:59;;;;;;;;;12.50;12.00;;;;;12.75;48.13;98926.50;4993902;28;46589;-78
2023/01/08 00:20:25;;;;;;;;;9.75;7.75;;;;;12.50;48.63;98926.91;4992768;28;45448;-79
2023/01/08 00:22:51;;;;;;;;;11.25;10.75;;;;;12.29;49.06;98912.13;4992512;28;45390;-78
2023/01/08 00:25:18;;;;;;;;;11.00;10.50;;;;;12.12;49.40;98883.91;4994127;28;45435;-78
2023/01/08 00:27:44;;;;;;;;;12.75;12.00;;;;;11.95;49.66;98898.88;4994414;28;46397;-78
2023/01/08 00:30:11;;;;;;;;;15.75;13.00;;;;;11.80;50.25;98884.66;4985902;28;45505;-80
2023/01/08 00:32:36;;;;;;;;;14.75;13.75;;;;;11.64;50.61;98887.16;4993129;28;45488;-79
2023/01/08 00:35:02;;;;;;;;;14.75;14.00;;;;;11.48;50.78;98873.81;4987246;28;45466;-79
2023/01/08 00:37:28;;;;;;;;;16.67;15.67;;;;;11.35;51.25;98871.84;4994366;28;46307;-78
2023/01/08 00:39:53;;;;;;;;;16.33;15.33;;;;;11.23;51.72;98859.25;4992314;28;45475;-78
2023/01/08 00:42:19;;;;;;;;;14.00;13.33;;;;;11.16;51.83;98872.69;4993798;28;45911;-78
2023/01/08 00:44:44;;;;;;;;;14.67;13.33;;;;;11.03;52.01;98853.09;4994525;28;45372;-78
2023/01/08 00:47:10;;;;;;;;;12.00;11.00;;;;;10.96;52.53;98866.63;4993849;28;46501;-78
2023/01/08 00:49:35;;;;;;;;;14.00;12.67;;;;;10.87;52.60;98848.59;4994208;28;45393;-78
2023/01/08 00:52:01;;;;;;;;;15.67;15.00;;;;;10.73;52.96;98838.66;4994038;28;45474;-78
2023/01/08 00:54:26;;;;;;;;;15.33;12.67;;;;;10.62;53.50;98822.47;4994188;28;45343;-78
2023/01/08 00:56:54;;;;;;;;;14.33;13.33;;;;;10.56;53.31;98820.94;4994254;28;46604;-78
2023/01/08 00:59:20;;;;;;;;;14.00;10.00;;;;;10.53;53.37;98815.84;4993822;28;45489;-78
2023/01/08 01:01:45;;;;;;;;;6.33;6.33;;;;;10.47;53.58;98806.44;4993804;28;45442;-77
2023/01/08 01:04:11;;;;;;;;;11.00;9.00;;;;;10.46;53.41;98804.72;4993679;28;45651;-78
2023/01/08 01:06:36;;;;;;;;;10.75;9.75;;;;;10.52;53.57;98792.19;4993807;28;45463;-78
2023/01/08 01:09:02;;;;;;;;;13.00;10.75;;;;;10.52;53.64;98793.06;4992889;28;45567;-78
2023/01/08 01:11:28;;;;;;;;;8.75;8.75;;;;;10.56;53.77;98791.97;4994112;28;45354;-78
2023/01/08 01:13:55;;;;;;;;;10.25;9.00;;;;;10.61;53.63;98803.16;4994075;28;45436;-78
2023/01/08 01:16:21;;;;;;;;;10.75;9.00;;;;;10.61;53.75;98810.22;4989367;28;45663;-78
2023/01/08 01:18:46;;;;;;;;;8.25;7.75;;;;;10.67;53.50;98804.69;4993442;28;45373;-78
2023/01/08 01:21:20;;;;;;;;;6.00;6.00;;;;;10.74;52.65;98803.44;4993071;28;45354;-78
2023/01/08 01:23:46;;;;;;;;;7.50;5.25;;;;;10.93;52.76;98812.22;4992269;28;45398;-78
2023/01/08 01:26:19;;;;;;;;;3.00;3.00;;;;;11.09;52.06;98809.72;4992397;28;45579;-77
2023/01/08 01:28:50;;;;;;;;;8.25;7.00;;;;;11.23;52.48;98801.19;4989412;28;45468;-78
2023/01/08 01:31:16;;;;;;;;;11.75;11.00;;;;;11.28;52.42;98775.41;4993173;28;45545;-78
2023/01/08 01:33:41;;;;;;;;;9.25;9.25;;;;;11.30;52.46;98784.09;4993325;28;45472;-78
2023/01/08 01:36:09;;;;;;;;;7.00;7.00;;;;;11.29;52.22;98780.63;4996750;28;47224;-78
2023/01/08 01:38:34;;;;;;;;;6.25;6.25;;;;;11.37;52.16;98778.47;5008204;28;45397;-78
2023/01/08 01:41:00;;;;;;;;;5.00;5.00;;;;;11.40;51.96;98773.03;4993021;28;45497;-78
2023/01/08 01:43:51;;;;;;;;;6.75;6.75;;;;;11.45;51.56;98762.25;4993560;28;45421;-78
2023/01/08 01:46:39;;;;;;;;;3.50;3.00;;;;;11.60;50.87;98765.91;4989231;28;46448;-77
2023/01/08 01:49:09;;;;;;;;;1.60;1.60;;;;;11.77;50.24;98761.53;5002004;28;45550;-78
2023/01/08 01:51:36;;;;;;;;;1.00;1.00;;;;;12.03;48.79;98754.91;4993725;28;45475;-78
2023/01/08 01:54:03;;;;;;;;;0.00;0.00;;;;;12.34;48.61;98753.31;4993535;28;45521;-78
2023/01/08 01:56:31;;;;;;;;;1.50;1.00;;;;;12.61;47.93;98764.19;4993763;28;45389;-78
2023/01/08 01:58:56;;;;;;;;;2.00;1.20;;;;;12.80;47.68;98741.09;4991836;28;45393;-78
2023/01/08 02:01:25;;;;;;;;;1.00;1.00;;;;;13.00;47.18;98740.00;4990206;28;45767;-78
2023/01/08 02:03:51;;;;;;;;;1.00;0.25;;;;;13.19;47.78;98749.50;4992348;28;45480;-78
2023/01/08 02:06:37;;;;;;;;;1.25;1.25;;;;;13.39;47.90;98736.91;4991680;28;47547;-78
2023/01/08 02:09:34;;;;;;;;;0.40;0.40;;;;;13.52;46.88;98722.88;4992198;28;45422;-77
2023/01/08 02:12:34;;;;;;;;;2.00;1.50;;;;;13.64;46.30;98731.88;4993501;28;45431;-78
2023/01/08 02:15:20;;;;;;;;;2.00;2.00;;;;;13.78;45.91;98736.34;5023976;28;45479;-78
2023/01/08 02:18:17;;;;;;;;;1.00;1.00;;;;;13.87;46.51;98731.38;4989571;28;46245;-79
2023/01/08 02:20:59;;;;;;;;;1.00;1.00;;;;;13.98;45.17;98726.28;5008613;28;46325;-78
2023/01/08 02:24:06;;;;;;;;;0.00;0.00;;;;;14.07;44.49;98713.44;4986786;28;45426;-78
2023/01/08 02:26:34;;;;;;;;;1.25;1.00;;;;;14.16;44.43;98713.72;4995009;28;45579;-78
2023/01/08 02:29:07;;;;;;;;;1.75;1.75;;;;;14.23;44.52;98715.06;4996137;28;46209;-78
2023/01/08 02:31:35;;;;;;;;;1.80;1.80;;;;;14.26;44.30;98714.84;4992627;28;45488;-78
2023/01/08 02:34:00;;;;;;;;;1.00;1.00;;;;;14.30;44.34;98699.59;4996497;28;45382;-78
2023/01/08 02:36:49;;;;;;;;;6.50;6.50;;;;;14.33;45.94;98710.03;4996478;28;45441;-78
2023/01/08 02:39:27;;;;;;;;;11.25;9.00;;;;;14.06;45.69;98707.28;4995887;28;46341;-77
2023/01/08 02:41:56;;;;;;;;;9.25;9.00;;;;;13.83;46.38;98715.75;4996352;28;45504;-78
2023/01/08 02:44:46;;;;;;;;;6.75;6.75;;;;;13.67;46.63;98715.81;4989896;28;45470;-78
2023/01/08 02:47:24;;;;;;;;;9.25;8.00;;;;;13.50;46.79;98719.44;4996164;28;45566;-78
2023/01/08 02:49:57;;;;;;;;;9.50;9.50;;;;;13.29;47.31;98710.09;4996095;28;46668;-78
2023/01/08 02:52:26;;;;;;;;;11.00;9.75;;;;;13.15;48.04;98729.41;4996385;28;45377;-78
2023/01/08 02:54:53;;;;;;;;;10.25;9.00;;;;;13.00;48.28;98724.97;4997699;28;45367;-78
2023/01/08 02:57:19;;;;;;;;;11.25;10.00;;;;;12.81;47.87;98708.41;4996209;28;45533;-78
2023/01/08 02:59:47;;;;;;;;;9.25;8.75;;;;;12.63;48.89;98722.66;4996081;28;45668;-78
2023/01/08 03:02:13;;;;;;;;;11.50;10.50;;;;;12.41;49.26;98710.59;4995441;28;45457;-78
2023/01/08 03:04:47;;;;;;;;;10.50;9.75;;;;;12.29;49.65;98734.19;5010364;28;45554;-78
2023/01/08 03:07:13;;;;;;;;;11.75;11.75;;;;;12.09;50.05;98717.59;4995782;28;45638;-78
2023/01/08 03:09:39;;;;;;;;;9.50;9.50;;;;;11.92;50.26;98712.34;4990879;28;45473;-78
2023/01/08 03:12:18;;;;;;;;;10.00;10.00;;;;;11.81;50.62;98715.53;4999401;28;45497;-78
2023/01/08 03:14:52;;;;;;;;;7.50;7.50;;;;;11.65;50.89;98697.88;4995971;28;45459;-78
2023/01/08 03:17:25;;;;;;;;;8.00;8.00;;;;;11.51;51.13;98696.81;4995540;28;45429;-78
2023/01/08 03:20:01;;;;;;;;;9.00;8.75;;;;;11.41;51.09;98686.78;4995445;28;45539;-78
2023/01/08 03:22:29;;;;;;;;;13.00;10.75;;;;;11.32;51.65;98705.72;4988330;28;45335;-78
2023/01/08 03:24:58;;;;;;;;;10.25;8.00;;;;;11.21;52.07;98697.50;4992989;28;45469;-78
2023/01/08 03:27:31;;;;;;;;;10.50;9.00;;;;;11.16;52.45;98708.25;4995616;28;45425;-78
2023/01/08 03:29:58;;;;;;;;;10.50;10.50;;;;;11.11;52.33;98695.28;4991103;28;45451;-77
2023/01/08 03:32:26;;;;;;;;;10.75;8.75;;;;;11.05;52.32;98692.97;4994996;28;45426;-78
2023/01/08 03:34:53;;;;;;;;;9.25;9.25;;;;;10.99;52.46;98684.50;4995163;28;45437;-78
2023/01/08 03:37:24;;;;;;;;;14.75;9.25;;;;;10.99;52.63;98682.72;4994939;28;45516;-77
2023/01/08 03:40:10;;;;;;;;;9.00;8.75;;;;;10.93;52.76;98672.44;4994394;28;46277;-78
2023/01/08 03:42:35;;;;;;;;;8.25;8.00;;;;;10.92;53.01;98680.44;4992950;28;45423;-78
2023/01/08 03:45:01;;;;;;;;;9.50;8.00;;;;;10.90;52.93;98662.03;5004714;28;45540;-78
2023/01/08 03:47:30;;;;;;;;;7.25;7.25;;;;;10.88;52.96;98658.66;4994755;28;45262;-78
2023/01/08 03:50:00;;;;;;;;;11.00;9.25;;;;;10.92;52.93;98664.59;4993250;28;46448;-78
2023/01/08 03:52:27;;;;;;;;;10.50;10.50;;;;;10.91;53.03;98663.75;4993307;28;45448;-78
2023/01/08 03:54:53;;;;;;;;;9.00;9.00;;;;;10.92;53.10;98657.56;4995310;28;45489;-78
2023/01/08 03:57:19;;;;;;;;;9.25;8.75;;;;;10.90;53.49;98651.50;4994796;28;45420;-77
2023/01/08 03:59:44;;;;;;;;;9.00;8.75;;;;;10.89;53.14;98649.81;4994747;28;46620;-78
2023/01/08 04:02:10;;;;;;;;;10.00;8.25;;;;;10.94;53.34;98668.88;4993401;28;45578;-78
2023/01/08 04:04:36;;;;;;;;;10.25;7.75;;;;;10.94;53.53;98660.13;5009606;28;45663;-78
2023/01/08 04:07:01;;;;;;;;;10.50;9.50;;;;;10.97;53.02;98670.53;4994730;28;45570;-78
2023/01/08 04:09:26;;;;;;;;;9.00;7.00;;;;;10.94;53.79;98665.38;4994231;28;46345;-77
2023/01/08 04:11:52;;;;;;;;;9.50;9.50;;;;;10.88;53.78;98674.47;4994664;28;45504;-78
2023/01/08 04:14:17;;;;;;;;;15.00;11.25;;;;;10.84;54.26;98680.81;4995248;28;45346;-78
2023/01/08 04:16:44;;;;;;;;;10.50;8.50;;;;;10.78;53.86;98675.84;4994087;28;45560;-78
2023/01/08 04:19:12;;;;;;;;;12.00;11.75;;;;;10.69;54.37;98681.56;5009327;28;48049;-78
2023/01/08 04:21:38;;;;;;;;;10.75;7.00;;;;;10.64;54.17;98673.84;4994133;28;45433;-77
2023/01/08 04:24:04;;;;;;;;;8.00;7.25;;;;;10.63;54.15;98669.50;5009385;28;45544;-77
2023/01/08 04:26:30;;;;;;;;;10.25;7.50;;;;;10.68;54.27;98679.84;4993912;28;45490;-78
2023/01/08 04:28:55;;;;;;;;;3.75;3.00;;;;;10.83;53.95;98664.16;4993491;28;45437;-78
2023/01/08 04:31:21;;;;;;;;;4.75;3.00;;;;;11.05;53.75;98658.69;4993422;28;45437;-77
2023/01/08 04:33:46;;;;;;;;;6.00;6.00;;;;;11.31;53.35;98649.44;4993710;28;45432;-78
2023/01/08 04:36:12;;;;;;;;;6.50;5.50;;;;;11.53;53.04;98652.72;4992822;28;45473;-78
2023/01/08 04:38:37;;;;;;;;;6.50;6.00;;;;;11.71;52.89;98639.50;4994247;28;45479;-78
2023/01/08 04:41:03;;;;;;;;;5.00;5.00;;;;;11.87;52.78;98629.84;4985605;28;45747;-78
2023/01/08 04:43:30;;;;;;;;;10.50;6.50;;;;;11.97;52.29;98636.34;4992009;28;45484;-78
2023/01/08 04:46:00;;;;;;;;;6.75;6.75;;;;;12.04;52.56;98642.16;4991644;28;45366;-77
2023/01/08 04:48:26;;;;;;;;;12.25;10.50;;;;;11.94;52.15;98630.38;4994385;28;46180;-78
2023/01/08 04:50:52;;;;;;;;;10.75;7.00;;;;;11.81;52.11;98619.59;4993292;28;45460;-78
2023/01/08 04:53:17;;;;;;;;;7.00;7.00;;;;;11.68;52.64;98622.03;4994573;28;45524;-77
2023/01/08 04:55:43;;;;;;;;;5.50;5.50;;;;;11.65;52.94;98622.16;4993738;28;45449;-78
2023/01/08 04:58:08;;;;;;;;;3.00;3.00;;;;;11.59;53.20;98627.75;4994288;28;46442;-78
2023/01/08 05:00:34;;;;;;;;;6.00;5.25;;;;;11.51;52.99;98619.41;4993507;28;45515;-78
2023/01/08 05:02:59;;;;;;;;;6.25;6.25;;;;;11.53;52.91;98610.47;4994042;28;45455;-78
2023/01/08 05:05:25;;;;;;;;;5.75;5.75;;;;;11.57;53.09;98623.50;4993475;28;45390;-78
2023/01/08 05:07:51;;;;;;;;;9.75;7.75;;;;;11.61;53.36;98625.03;4993711;28;45536;-78
2023/01/08 05:10:17;;;;;;;;;8.00;8.00;;;;;11.58;53.30;98626.06;4996706;28;45391;-78
2023/01/08 05:12:42;;;;;;;;;10.75;10.75;;;;;11.52;53.50;98615.84;5009281;28;45330;-77
2023/01/08 05:15:08;;;;;;;;;7.50;7.00;;;;;11.36;53.41;98594.66;4992280;28;45741;-78
2023/01/08 05:17:33;;;;;;;;;11.00;9.75;;;;;11.23;53.59;98598.00;5008668;28;47683;-78
2023/01/08 05:19:59;;;;;;;;;7.50;7.50;;;;;11.06;53.88;98597.06;4993203;28;45465;-77
2023/01/08 05:22:24;;;;;;;;;6.75;6.75;;;;;11.02;54.24;98587.63;4994134;28;45429;-78
2023/01/08 05:24:50;;;;;;;;;9.75;8.00;;;;;11.12;54.20;98585.34;4993839;28;45552;-78
2023/01/08 05:27:15;;;;;;;;;7.25;6.00;;;;;11.16;54.40;98590.41;4991883;28;45441;-77
2023/01/08 05:29:40;;;;;;;;;9.25;8.50;;;;;11.15;54.21;98591.34;4992450;28;45491;-78
2023/01/08 05:32:14;;;;;;;;;8.75;8.75;;;;;11.12;54.34;98598.53;5007991;28;45464;-78
2023/01/08 05:34:39;;;;;;;;;8.25;8.00;;;;;11.08;54.10;98579.38;4992488;28;45497;-78
2023/01/08 05:37:05;;;;;;;;;8.50;7.50;;;;;10.98;54.33;98587.84;5008417;28;47159;-77
2023/01/08 05:39:30;;;;;;;;;3.75;2.75;;;;;10.91;54.59;98595.19;4992170;28;45468;-78
2023/01/08 05:41:55;;;;;;;;;7.00;7.00;;;;;10.91;54.52;98582.00;4993634;28;45920;-78
2023/01/08 05:44:21;;;;;;;;;7.50;6.25;;;;;10.88;54.97;98594.50;4992657;28;45474;-80
2023/01/08 05:46:46;;;;;;;;;7.25;6.00;;;;;10.88;55.05;98600.63;5007868;28;45604;-78
2023/01/08 05:49:12;;;;;;;;;14.00;9.00;;;;;10.89;54.69;98594.44;4993080;28;45472;-78
2023/01/08 05:51:37;;;;;;;;;4.75;4.50;;;;;10.90;54.91;98613.72;4993586;28;45391;-78
2023/01/08 05:54:02;;;;;;;;;6.25;4.25;;;;;11.04;54.85;98617.41;4993132;28;45679;-78
2023/01/08 05:56:28;;;;;;;;;4.75;3.75;;;;;11.21;54.77;98607.78;4995068;28;45789;-78
2023/01/08 05:58:54;;;;;;;;;5.75;4.25;;;;;11.38;54.62;98618.34;4996398;28;45489;-78
2023/01/08 06:01:20;;;;;;;;;4.00;4.00;;;;;11.55;54.46;98618.31;4996266;28;45343;-78
2023/01/08 06:03:45;;;;;;;;;2.00;2.00;;;;;11.71;54.18;98613.09;4996085;28;45349;-77
2023/01/08 06:06:12;;;;;;;;;7.00;3.00;;;;;12.01;54.07;98611.47;4995216;28;46228;-77
2023/01/08 06:08:38;;;;;;;;;1.00;1.00;;;;;12.29;53.43;98608.16;4996784;28;45398;-78
2023/01/08 06:11:06;;;;;;;;;3.00;3.00;;;;;12.59;53.12;98606.44;4997302;28;45517;-77
2023/01/08 06:13:33;;;;;;;;;4.25;2.25;;;;;12.82;52.66;98594.56;4990826;28;45533;-77
2023/01/08 06:16:00;;;;;;;;;3.00;2.00;;;;;13.05;52.28;98602.97;4995583;28;46512;-78
2023/01/08 06:18:26;;;;;;;;;1.25;1.25;;;;;13.24;52.65;98606.25;4996430;28;45386;-78
2023/01/08 06:20:51;;;;;;;;;2.00;1.00;;;;;13.35;52.27;98609.16;4996445;28;45489;-77
2023/01/08 06:23:17;;;;;;;;;2.00;2.00;;;;;13.48;51.43;98607.47;4996026;28;45463;-78
2023/01/08 06:25:42;;;;;;;;;1.25;1.25;;;;;13.61;51.83;98624.31;4996039;28;46017;-77
2023/01/08 06:28:08;;;;;;;;;2.25;2.25;;;;;13.70;51.70;98630.00;4996146;28;45410;-77
2023/01/08 06:30:33;;;;;;;;;3.00;2.00;;;;;13.67;52.44;98631.03;4995539;28;45425;-77
2023/01/08 06:33:00;;;;;;;;;5.00;4.00;;;;;13.56;52.91;98631.69;4996384;28;45486;-77
2023/01/08 06:35:26;;;;;;;;;3.50;3.50;;;;;13.41;53.99;98631.72;4994754;28;46282;-78
2023/01/08 06:37:54;;;;;;;;;5.25;5.00;;;;;13.30;55.12;98636.81;4995368;28;45813;-78
2023/01/08 06:40:19;;;;;;;;;5.00;5.00;;;;;13.20;55.40;98642.66;4996082;28;45421;-78
2023/01/08 06:42:45;;;;;;;;;7.25;4.00;;;;;13.14;56.68;98658.00;4996020;28;45398;-78
2023/01/08 06:45:11;;;;;;;;;5.25;5.25;;;;;13.05;56.92;98648.81;4995657;28;46398;-78
2023/01/08 06:47:36;;;;;;;;;6.50;5.25;;;;;12.97;55.24;98627.22;4995833;28;45448;-77
2023/01/08 06:50:03;;;;;;;;;7.50;7.25;;;;;12.80;54.36;98673.16;4996638;28;45461;-78
2023/01/08 06:52:28;;;;;;;;;6.50;5.25;;;;;12.58;53.77;98678.78;4994608;28;45549;-78
2023/01/08 06:54:54;;;;;;;;;8.50;7.00;;;;;12.41;53.54;98684.16;4989879;28;46464;-77
2023/01/08 06:57:19;;;;;;;;;6.25;6.25;;;;;12.20;53.28;98675.63;4995828;28;45545;-78
2023/01/08 06:59:45;;;;;;;;;10.00;7.75;;;;;12.00;53.16;98682.88;4989697;28;45582;-78
2023/01/08 07:02:14;;;;;;;;;7.75;7.50;;;;;11.84;53.43;98674.91;4995106;28;45461;-78
2023/01/08 07:04:40;;;;;;;;;9.25;7.00;;;;;11.70;53.57;98672.97;4995003;28;45496;-77
2023/01/08 07:07:05;;;;;;;;;7.00;7.00;;;;;11.59;53.95;98685.84;5009750;28;45313;-77
2023/01/08 07:09:33;;;;;;;;;7.00;5.25;;;;;11.46;54.57;98682.13;4994993;28;45515;-77
2023/01/08 07:11:58;;;;;;;;;8.00;6.00;;;;;11.36;55.11;98710.78;4995607;28;45313;-78
2023/01/08 07:14:24;;;;;;;;;8.50;7.50;;;;;11.25;55.80;98699.88;4995115;28;45469;-78
2023/01/08 07:16:49;;;;;;;;;6.00;6.00;;;;;11.13;55.53;98701.34;4995187;28;45545;-78
2023/01/08 07:19:15;;;;;;;;;8.25;6.50;;;;;11.01;56.15;98693.19;4995060;28;45544;-78
2023/01/08 07:21:40;;;;;;;;;8.25;7.00;;;;;10.82;56.67;98701.97;4995590;28;45493;-78
2023/01/08 07:24:06;;;;;;;;;6.75;6.75;;;;;10.70;57.43;98707.84;4995966;28;46196;-78
2023/01/08 07:26:32;;;;;;;;;8.75;8.75;;;;;10.62;58.21;98723.16;4995180;28;45389;-78
2023/01/08 07:28:58;;;;;;;;;13.00;9.00;;;;;10.54;58.78;98721.81;4995579;28;45564;-78
2023/01/08 07:31:23;;;;;;;;;8.00;6.00;;;;;10.42;58.98;98710.91;4994561;28;45453;-78
2023/01/08 07:33:49;;;;;;;;;7.25;7.25;;;;;10.37;59.21;98731.34;5010593;28;47141;-78
2023/01/08 07:36:14;;;;;;;;;7.25;7.25;;;;;10.31;59.60;98741.31;4994838;28;45524;-78
2023/01/08 07:38:41;;;;;;;;;5.75;5.00;;;;;10.24;60.09;98753.03;4994996;28;45457;-78
2023/01/08 07:41:06;;;;;;;;;7.00;7.00;;;;;10.22;60.75;98757.53;4993944;28;45493;-77
2023/01/08 07:43:32;;;;;;;;;8.50;7.75;;;;;10.13;61.30;98745.56;4996516;28;46528;-78
2023/01/08 07:45:57;;;;;;;;;9.00;8.50;;;;;10.09;61.27;98739.59;4993597;28;45500;-78
2023/01/08 07:48:23;;;;;;;;;8.00;7.00;;;;;10.05;61.50;98739.81;4994644;28;45521;-79
2023/01/08 07:50:48;;;;;;;;;7.00;6.00;;;;;10.00;61.49;98741.78;4994068;28;45510;-79
2023/01/08 07:53:16;;;;;;;;;6.00;6.00;;;;;9.99;61.85;98746.19;4994475;28;46250;-78
2023/01/08 07:55:41;;;;;;;;;7.00;7.00;;;;;9.95;62.27;98743.75;4993793;28;45496;-78
2023/01/08 07:58:09;;;;;;;;;8.00;8.00;;;;;9.94;62.41;98760.47;4994535;28;45529;-78
2023/01/08 08:00:35;;;;;;;;;8.50;8.25;;;;;9.90;63.30;98758.88;4993607;28;45536;-77
2023/01/08 08:03:05;;;;;;;;;9.50;7.00;;;;;9.90;63.37;98759.75;4993861;28;46058;-77
2023/01/08 08:05:31;;;;;;;;;10.00;6.25;;;;;9.88;63.03;98761.63;4992715;28;45637;-77
2023/01/08 08:07:56;;;;;;;;;6.75;6.75;;;;;9.83;63.51;98754.81;4994991;28;45450;-77
2023/01/08 08:10:22;;;;;;;;;6.75;6.75;;;;;9.81;63.47;98757.50;4998174;28;45469;-78
2023/01/08 08:12:47;;;;;;;;;6.25;6.25;;;;;9.80;63.86;98774.22;4994603;28;46449;-77
2023/01/08 08:15:13;;;;;;;;;6.25;6.25;;;;;9.81;64.40;98762.78;4993814;28;45490;-78
2023/01/08 08:17:38;;;;;;;;;8.75;7.50;;;;;9.83;64.78;98749.56;4995002;28;45461;-78
2023/01/08 08:20:04;;;;;;;;;7.33;7.00;;;;;9.84;64.97;98749.50;5007255;28;45549;-78
2023/01/08 08:22:29;;;;;;;;;8.67;8.00;;;;;9.82;65.45;98755.75;4994189;28;46324;-78
2023/01/08 08:24:55;;;;;;;;;8.33;8.33;;;;;9.81;65.82;98754.88;4993287;28;45471;-77
2023/01/08 08:27:23;;;;;;;;;11.00;9.33;;;;;9.80;66.34;98751.41;4993882;28;45522;-78
2023/01/08 08:29:48;;;;;;;;;8.67;8.33;;;;;9.76;66.09;98743.69;4992552;28;45695;-78
2023/01/08 08:32:13;;;;;;;;;5.50;4.00;;;;;9.75;66.17;98758.63;4994270;28;46312;-77
2023/01/08 08:34:39;;;;;;;;;7.00;7.00;;;;;9.74;65.92;98745.53;4994136;28;45514;-77
2023/01/08 08:37:04;;;;;;;;;13.67;9.67;;;;;9.74;66.02;98743.75;4993071;28;45420;-77
2023/01/08 08:39:30;;;;;;;;;27.00;20.00;;;;;9.70;66.49;98755.34;4994093;28;45503;-78
2023/01/08 08:41:55;;;;;;;;;8.50;8.50;;;;;9.68;66.76;98758.97;4993249;28;46012;-77
2023/01/08 08:44:20;;;;;;;;;9.33;9.33;;;;;9.67;66.94;98760.75;4993005;28;45358;-76
2023/01/08 08:46:46;;;;;;;;;13.67;10.67;;;;;9.66;67.32;98759.03;4990570;28;45712;-76
2023/01/08 08:49:11;;;;;;;;;7.50;7.50;;;;;9.68;67.53;98756.34;4991643;28;46090;-77
2023/01/08 08:51:37;;;;;;;;;11.75;9.50;;;;;9.71;67.85;98745.69;4993599;28;45414;-77
2023/01/08 08:54:03;;;;;;;;;7.50;7.00;;;;;9.74;67.71;98751.66;4993783;28;45435;-77
2023/01/08 08:56:28;;;;;;;;;6.75;6.75;;;;;9.76;68.02;98736.66;4994209;28;45472;-77
2023/01/08 08:58:54;;;;;;;;;0.50;0.50;;;;;9.76;67.97;98718.22;4993491;28;45486;-77
2023/01/08 09:01:20;;;;;;;;;7.00;5.67;;;;;9.79;67.51;98717.25;4990324;28;45689;-77
2023/01/08 09:03:45;;;;;;;;;12.25;11.00;;;;;9.77;68.94;98727.81;4992926;28;45291;-77
2023/01/08 09:06:14;;;;;;;;;8.00;8.00;;;;;9.78;68.97;98720.78;4988404;28;45425;-77
2023/01/08 09:08:40;;;;;;;;;10.75;9.00;;;;;9.79;69.68;98726.00;4993061;28;45501;-77
2023/01/08 09:11:06;;;;;;;;;8.00;8.00;;;;;9.76;69.28;98722.63;5007669;28;46417;-77
2023/01/08 09:13:31;;;;;;;;;9.67;9.33;;;;;9.78;69.57;98726.91;4993186;28;45370;-77
2023/01/08 09:15:58;;;;;;;;;13.67;10.00;;;;;9.80;69.57;98717.16;4992767;28;45597;-77
2023/01/08 09:18:23;;;;;;;;;9.33;8.67;;;;;9.75;69.39;98713.00;4993454;28;45592;-77
2023/01/08 09:20:49;;;;;;;;;10.67;9.33;;;;;9.72;69.00;98718.41;4993250;28;45437;-76
2023/01/08 09:23:14;;;;;;;;;9.25;8.50;;;;;9.66;68.76;98711.66;4993300;28;45542;-77
2023/01/08 09:25:40;;;;;;;;;8.00;7.00;;;;;9.62;69.35;98722.38;5008131;28;45432;-77
2023/01/08 09:28:08;;;;;;;;;12.00;11.00;;;;;9.59;69.60;98717.22;4991762;28;45468;-78
2023/01/08 09:30:34;;;;;;;;;9.33;9.33;;;;;9.55;69.72;98710.41;4990065;28;45386;-77
2023/01/08 09:33:01;;;;;;;;;6.00;5.75;;;;;9.54;69.98;98687.66;4996421;28;45605;-78
2023/01/08 09:35:27;;;;;;;;;11.50;10.00;;;;;9.52;70.41;98700.00;4992884;28;45410;-77
2023/01/08 09:37:54;;;;;;;;;10.00;9.75;;;;;9.50;70.34;98705.34;4996675;28;45422;-78
2023/01/08 09:40:32;;;;;;;;;14.00;12.67;;;;;9.46;70.81;98709.00;4996173;28;45527;-78
2023/01/08 09:43:02;;;;;;;;;13.25;9.00;;;;;9.51;70.38;98707.03;5024629;28;45868;-78
2023/01/08 09:45:31;;;;;;;;;12.00;10.00;;;;;9.49;70.29;98697.50;5007040;28;45464;-77
2023/01/08 09:48:03;;;;;;;;;15.33;14.33;;;;;9.52;70.26;98697.38;5011910;28;45618;-77
2023/01/08 09:50:31;;;;;;;;;14.00;11.33;;;;;9.52;70.46;98689.47;4996485;28;45552;-77
2023/01/08 09:52:58;;;;;;;;;12.00;10.33;;;;;9.49;70.69;98693.09;4996803;28;45386;-77
2023/01/08 09:55:27;;;;;;;;;11.67;10.33;;;;;9.47;70.65;98691.44;4998305;28;45421;-77
2023/01/08 09:57:53;;;;;;;;;10.00;9.67;;;;;9.46;70.45;98687.97;4995802;28;45456;-78
2023/01/08 10:00:27;;;;;;;;;12.33;12.00;;;;;9.46;71.00;98672.16;4995094;28;46223;-77
2023/01/08 10:02:54;;;;;;;;;10.00;8.67;;;;;9.47;71.40;98662.50;4997005;28;45493;-77
2023/01/08 10:05:20;;;;;;;;;9.75;8.50;;;;;9.46;71.40;98653.75;4995996;28;45416;-77
2023/01/08 10:07:45;;;;;;;;;15.00;14.00;;;;;9.49;71.50;98643.09;4996597;28;45404;-77
2023/01/08 10:10:31;;;;;;;;;15.00;14.00;;;;;9.54;71.96;98637.66;4990752;28;46669;-77
2023/01/08 10:12:58;;;;;;;;;15.00;14.67;;;;;9.57;72.38;98624.34;4992404;28;45406;-77
2023/01/08 10:15:24;;;;;;;;;11.75;11.00;;;;;9.61;72.22;98616.25;4996224;28;45527;-77
2023/01/08 10:18:05;;;;;;;;;6.00;4.67;;;;;9.64;72.34;98595.06;4995870;28;45598;-77
2023/01/08 10:20:33;;;;;;;;;14.75;12.00;;;;;9.68;72.46;98596.63;4995536;28;45535;-77
2023/01/08 10:23:13;;;;;;;;;18.00;13.33;;;;;9.69;72.50;98608.88;4991899;28;45474;-77
2023/01/08 10:26:00;;;;;;;;;16.00;13.33;;;;;9.73;73.46;98628.84;4992321;28;45715;-77
2023/01/08 10:28:31;;;;;;;;;10.00;9.50;;;;;9.78;71.81;98618.97;4995369;28;45461;-77
2023/01/08 10:31:07;;;;;;;;;13.25;11.75;;;;;9.78;71.81;98605.81;4994444;28;46421;-77
2023/01/08 10:33:44;;;;;;;;;13.00;13.00;;;;;9.82;72.79;98603.91;4993162;28;45561;-77
2023/01/08 10:36:14;;;;;;;;;13.33;13.00;;;;;9.88;72.57;98629.97;4990437;28;45378;-77
2023/01/08 10:39:02;;;;;;;;;11.67;11.67;;;;;9.90;73.21;98620.19;4996400;28;45468;-77
2023/01/08 10:41:28;;;;;;;;;13.33;13.00;;;;;9.93;73.07;98622.69;4991000;28;45544;-76
2023/01/08 10:44:00;;;;;;;;;14.67;13.33;;;;;9.96;72.61;98614.66;4994819;28;45536;-77
2023/01/08 10:46:42;;;;;;;;;12.75;10.00;;;;;9.98;72.24;98604.06;4993680;28;45500;-77
2023/01/08 10:49:16;;;;;;;;;9.67;9.67;;;;;9.92;71.46;98599.91;4994915;28;45442;-77
2023/01/08 10:51:50;;;;;;;;;12.00;12.00;;;;;9.91;72.49;98624.53;4990469;28;45390;-78
2023/01/08 10:54:33;;;;;;;;;14.67;13.00;;;;;9.91;72.58;98629.81;4989727;28;45533;-77
2023/01/08 10:56:58;;;;;;;;;12.00;12.00;;;;;9.85;72.29;98605.56;4993971;28;45565;-77
2023/01/08 10:59:24;;;;;;;;;12.00;10.33;;;;;9.85;72.46;98601.13;4988045;28;46065;-77
2023/01/08 11:01:54;;;;;;;;;14.33;14.00;;;;;9.83;72.48;98600.34;4993800;28;47134;-77
2023/01/08 11:04:24;;;;;;;;;16.67;15.00;;;;;9.79;73.02;98596.16;4989489;28;45657;-78
2023/01/08 11:06:50;;;;;;;;;12.33;12.33;;;;;9.75;73.14;98590.16;4994627;28;45424;-77
2023/01/08 11:09:23;;;;;;;;;17.33;14.33;;;;;9.76;73.70;98585.75;4993545;28;45680;-77
2023/01/08 11:11:49;;;;;;;;;16.00;14.33;;;;;9.83;74.22;98586.34;4989670;28;45554;-78
2023/01/08 11:14:21;;;;;;;;;18.67;16.67;;;;;9.83;74.45;98581.06;4987369;28;45404;-77
2023/01/08 11:16:47;;;;;;;;;17.67;16.33;;;;;9.88;74.78;98587.84;4993421;28;45527;-77
2023/01/08 11:19:21;;;;;;;;;18.00;16.00;;;;;9.92;74.70;98570.09;4991783;28;45543;-77
2023/01/08 11:22:01;;;;;;;;;15.00;13.50;;;;;9.97;74.85;98573.38;4990204;28;46256;-76
2023/01/08 11:24:31;;;;;;;;;19.67;15.67;;;;;10.00;75.04;98573.25;5006902;28;45560;-78
2023/01/08 11:27:02;;;;;;;;;15.33;14.67;;;;;10.04;74.93;98567.78;4994387;28;45588;-78
2023/01/08 11:29:37;;;;;;;;;14.00;12.00;;;;;10.07;75.14;98572.88;4988108;28;45527;-78
2023/01/08 11:32:22;;;;;;;;;16.33;15.00;;;;;10.08;75.63;98556.16;4993569;28;46306;-78
2023/01/08 11:34:50;;;;;;;;;20.67;17.67;;;;;10.14;75.60;98558.50;4994820;28;45493;-78